createdAt,value
2018-06-12T00:01:33.014Z,11.20
2018-06-12T00:04:02.002Z,11.43
2018-06-12T00:06:30.683Z,11.87
2018-06-12T00:08:59.511Z,11.23
2018-06-12T00:11:28.679Z,12.40
2018-06-12T00:13:57.498Z,11.70
2018-06-12T00:16:26.398Z,11.87
2018-06-12T00:18:55.000Z,11.67
2018-06-12T00:21:23.888Z,11.27
2018-06-12T00:23:52.529Z,11.90
2018-06-12T00:26:21.238Z,11.17
2018-06-12T00:28:50.097Z,10.93
2018-06-12T00:31:19.005Z,10.70
2018-06-12T00:33:47.980Z,10.00
2018-06-12T00:36:16.916Z,10.00
2018-06-12T00:38:45.811Z,10.03
2018-06-12T00:41:14.637Z,9.57
2018-06-12T00:43:43.448Z,8.97
2018-06-12T00:46:12.337Z,9.20
2018-06-12T00:48:41.137Z,8.20
2018-06-12T00:51:09.914Z,7.70
2018-06-12T00:53:38.719Z,8.33
2018-06-12T00:56:07.730Z,7.70
2018-06-12T00:58:36.690Z,7.90
2018-06-12T01:01:05.478Z,7.93
2018-06-12T01:03:34.211Z,8.07
2018-06-12T01:06:03.297Z,8.27
2018-06-12T01:08:31.967Z,8.60
2018-06-12T01:11:00.860Z,8.70
2018-06-12T01:13:29.550Z,8.33
2018-06-12T01:15:58.388Z,8.57
2018-06-12T01:18:27.307Z,8.40
2018-06-12T01:20:56.199Z,8.30
2018-06-12T01:23:24.929Z,7.43
2018-06-12T01:25:53.611Z,8.07
2018-06-12T01:28:22.771Z,7.37
2018-06-12T01:30:51.596Z,8.07
2018-06-12T01:33:20.271Z,6.93
2018-06-12T01:35:49.031Z,7.20
2018-06-12T01:38:17.922Z,7.77
2018-06-12T01:40:46.828Z,8.03
2018-06-12T01:43:15.837Z,7.40
2018-06-12T01:45:44.727Z,8.03
2018-06-12T01:48:13.724Z,9.30
2018-06-12T01:50:42.592Z,8.53
2018-06-12T01:53:11.519Z,8.37
2018-06-12T01:55:40.409Z,8.23
2018-06-12T01:58:09.236Z,8.40
2018-06-12T02:00:38.164Z,8.43
2018-06-12T02:03:06.950Z,9.07
2018-06-12T02:05:35.754Z,7.83
2018-06-12T02:08:04.451Z,8.17
2018-06-12T02:10:33.205Z,8.60
2018-06-12T02:13:02.340Z,8.50
2018-06-12T02:15:31.442Z,7.87
2018-06-12T02:18:00.334Z,8.10
2018-06-12T02:20:29.179Z,8.77
2018-06-12T02:22:58.142Z,9.03
2018-06-12T02:25:27.610Z,8.00
2018-06-12T02:27:56.320Z,9.33
2018-06-12T02:30:25.085Z,8.83
2018-06-12T02:32:53.635Z,10.17
2018-06-12T02:35:22.524Z,9.90
2018-06-12T02:37:51.514Z,9.93
2018-06-12T02:40:20.225Z,10.23
2018-06-12T02:42:49.096Z,10.27
2018-06-12T02:45:18.124Z,9.60
2018-06-12T02:47:47.023Z,9.83
2018-06-12T02:50:16.053Z,9.53
2018-06-12T02:52:44.880Z,9.43
2018-06-12T02:55:13.659Z,9.43
2018-06-12T02:57:42.267Z,9.57
2018-06-12T03:00:11.337Z,8.60
2018-06-12T03:02:40.170Z,8.90
2018-06-12T03:05:08.644Z,9.57
2018-06-12T03:07:36.944Z,9.37
2018-06-12T03:10:06.677Z,9.37
2018-06-12T03:12:35.616Z,9.00
2018-06-12T03:15:04.455Z,9.47
2018-06-12T03:17:33.323Z,10.17
2018-06-12T03:20:02.150Z,9.83
2018-06-12T03:22:30.981Z,9.27
2018-06-12T03:24:59.701Z,9.30
2018-06-12T03:27:28.395Z,9.73
2018-06-12T03:29:57.154Z,9.67
2018-06-12T03:32:25.901Z,9.63
2018-06-12T03:34:54.830Z,9.73
2018-06-12T03:37:23.550Z,9.13
2018-06-12T03:39:52.282Z,10.23
2018-06-12T03:42:21.100Z,9.50
2018-06-12T03:44:49.464Z,9.80
2018-06-12T03:47:18.249Z,9.53
2018-06-12T03:49:46.994Z,10.03
2018-06-12T03:52:23.476Z,9.23
2018-06-12T03:54:52.546Z,9.63
2018-06-12T03:57:21.351Z,9.30
2018-06-12T03:59:50.532Z,9.80
2018-06-12T04:02:19.211Z,8.93
2018-06-12T04:04:47.880Z,8.70
2018-06-12T04:07:16.616Z,8.13
2018-06-12T04:09:45.385Z,8.23
2018-06-12T04:12:14.130Z,8.70
2018-06-12T04:14:42.943Z,8.57
2018-06-12T04:17:11.772Z,8.50
2018-06-12T04:19:40.562Z,8.60
2018-06-12T04:22:09.338Z,8.30
2018-06-12T04:24:38.098Z,8.60
2018-06-12T04:27:06.890Z,8.30
2018-06-12T04:29:35.556Z,8.60
2018-06-12T04:32:04.346Z,8.43
2018-06-12T04:34:33.065Z,8.00
2018-06-12T04:37:01.892Z,8.37
2018-06-12T04:39:30.288Z,7.50
2018-06-12T04:41:59.077Z,7.97
2018-06-12T04:44:28.027Z,8.43
2018-06-12T04:46:57.001Z,8.40
2018-06-12T04:49:25.695Z,8.43
2018-06-12T04:51:54.549Z,7.63
2018-06-12T04:54:23.216Z,7.70
2018-06-12T04:56:52.044Z,7.90
2018-06-12T04:59:20.820Z,7.83
2018-06-12T05:01:55.852Z,8.10
2018-06-12T05:04:24.697Z,7.83
2018-06-12T05:06:53.828Z,8.30
2018-06-12T05:09:22.720Z,7.80
2018-06-12T05:11:51.605Z,7.40
2018-06-12T05:14:20.338Z,7.93
2018-06-12T05:16:49.186Z,7.17
2018-06-12T05:19:18.091Z,6.90
2018-06-12T05:21:47.127Z,7.80
2018-06-12T05:24:16.867Z,7.80
2018-06-12T05:26:46.616Z,7.70
2018-06-12T05:29:15.335Z,6.80
2018-06-12T05:31:44.152Z,7.40
2018-06-12T05:34:12.940Z,7.67
2018-06-12T05:36:41.570Z,7.07
2018-06-12T05:39:12.082Z,7.17
2018-06-12T05:41:41.204Z,7.63
2018-06-12T05:44:09.760Z,7.13
2018-06-12T05:46:38.553Z,7.30
2018-06-12T05:49:07.377Z,7.60
2018-06-12T05:51:36.130Z,7.33
2018-06-12T05:54:05.391Z,7.43
2018-06-12T05:56:34.492Z,7.77
2018-06-12T05:59:03.480Z,7.33
2018-06-12T06:01:32.533Z,6.80
2018-06-12T06:04:01.471Z,7.13
2018-06-12T06:06:30.425Z,7.70
2018-06-12T06:08:59.368Z,7.20
2018-06-12T06:11:28.144Z,7.00
2018-06-12T06:13:56.880Z,6.63
2018-06-12T06:16:25.680Z,6.57
2018-06-12T06:18:54.392Z,6.90
2018-06-12T06:21:23.246Z,6.70
2018-06-12T06:23:52.497Z,7.67
2018-06-12T06:26:21.505Z,7.20
2018-06-12T06:28:50.274Z,6.53
2018-06-12T06:31:19.235Z,6.67
2018-06-12T06:33:48.278Z,6.90
2018-06-12T06:36:17.316Z,6.80
2018-06-12T06:38:46.026Z,6.73
2018-06-12T06:41:15.043Z,6.87
2018-06-12T06:43:43.651Z,6.33
2018-06-12T06:46:12.602Z,7.13
2018-06-12T06:48:41.481Z,6.70
2018-06-12T06:51:10.228Z,6.33
2018-06-12T06:53:39.136Z,6.40
2018-06-12T06:56:08.183Z,6.57
2018-06-12T06:58:37.076Z,6.00
2018-06-12T07:01:06.173Z,6.20
2018-06-12T07:03:35.129Z,6.57
2018-06-12T07:06:04.056Z,6.57
2018-06-12T07:08:32.934Z,6.50
2018-06-12T07:11:02.137Z,6.67
2018-06-12T07:13:31.139Z,6.27
2018-06-12T07:15:59.808Z,6.80
2018-06-12T07:18:28.616Z,6.20
2018-06-12T07:21:05.648Z,6.20
2018-06-12T07:23:34.605Z,6.53
2018-06-12T07:26:03.974Z,7.00
2018-06-12T07:28:32.881Z,6.80
2018-06-12T07:31:01.782Z,6.70
2018-06-12T07:33:30.590Z,7.03
2018-06-12T07:35:59.289Z,6.60
2018-06-12T07:38:27.975Z,6.47
2018-06-12T07:40:56.692Z,6.10
2018-06-12T07:43:25.415Z,6.80
2018-06-12T07:45:54.172Z,6.77
2018-06-12T07:48:22.986Z,6.67
2018-06-12T07:50:52.436Z,7.77
2018-06-12T07:53:21.097Z,7.20
2018-06-12T07:55:49.924Z,7.50
2018-06-12T07:58:18.857Z,7.33
2018-06-12T08:00:47.589Z,7.03
2018-06-12T08:03:16.260Z,7.13
2018-06-12T08:05:44.976Z,7.30
2018-06-12T08:08:13.652Z,7.67
2018-06-12T08:10:42.394Z,7.30
2018-06-12T08:13:11.292Z,7.50
2018-06-12T08:15:40.093Z,7.13
2018-06-12T08:18:09.102Z,7.87
2018-06-12T08:20:37.874Z,7.50
2018-06-12T08:23:06.805Z,7.87
2018-06-12T08:25:35.637Z,7.83
2018-06-12T08:28:04.769Z,7.53
2018-06-12T08:30:33.762Z,6.87
2018-06-12T08:33:02.211Z,7.57
2018-06-12T08:35:31.170Z,7.50
2018-06-12T08:38:00.096Z,7.30
2018-06-12T08:40:28.908Z,8.10
2018-06-12T08:42:58.018Z,6.93
2018-06-12T08:45:27.881Z,7.47
2018-06-12T08:47:58.312Z,7.43
2018-06-12T08:50:30.121Z,7.60
2018-06-12T08:52:59.098Z,7.50
2018-06-12T08:55:31.296Z,7.93
2018-06-12T08:58:00.114Z,8.20
2018-06-12T09:00:29.148Z,7.83
2018-06-12T09:02:57.842Z,8.40
2018-06-12T09:05:26.629Z,8.60
2018-06-12T09:07:55.481Z,7.97
2018-06-12T09:10:24.315Z,8.67
2018-06-12T09:12:53.000Z,7.87
2018-06-12T09:15:21.653Z,8.00
2018-06-12T09:17:50.450Z,8.17
2018-06-12T09:20:19.184Z,8.80
2018-06-12T09:22:47.992Z,8.17
2018-06-12T09:35:06.806Z,8.93
2018-06-12T09:37:35.561Z,9.70
2018-06-12T09:40:04.422Z,9.53
2018-06-12T09:42:33.247Z,8.90
2018-06-12T09:45:02.085Z,10.03
2018-06-12T09:47:30.802Z,9.47
2018-06-12T09:49:59.885Z,9.03
2018-06-12T09:52:28.717Z,10.10
2018-06-12T09:54:57.480Z,9.90
2018-06-12T09:57:26.765Z,9.30
2018-06-12T09:59:55.655Z,8.27
2018-06-12T10:02:24.359Z,9.70
2018-06-12T10:04:52.972Z,8.83
2018-06-12T10:07:21.683Z,9.80
2018-06-12T10:09:50.605Z,9.97
2018-06-12T10:12:19.312Z,10.00
2018-06-12T10:14:48.388Z,10.67
2018-06-12T10:17:17.105Z,9.27
2018-06-12T10:19:45.968Z,9.40
2018-06-12T10:22:14.690Z,9.50
2018-06-12T10:24:43.398Z,9.67
2018-06-12T10:27:12.361Z,9.53
2018-06-12T10:29:41.049Z,9.70
2018-06-12T10:32:10.207Z,9.67
2018-06-12T10:34:38.953Z,9.70
2018-06-12T10:37:07.897Z,9.33
2018-06-12T10:39:36.792Z,10.00
2018-06-12T10:42:05.785Z,9.40
2018-06-12T10:44:34.575Z,9.43
2018-06-12T10:47:03.381Z,10.07
2018-06-12T10:49:32.182Z,9.60
2018-06-12T10:52:00.929Z,9.40
2018-06-12T10:54:30.344Z,9.10
2018-06-12T10:56:59.285Z,9.07
2018-06-12T10:59:28.258Z,8.83
2018-06-12T11:01:56.961Z,9.07
2018-06-12T11:04:25.906Z,8.07
2018-06-12T11:06:54.779Z,8.20
2018-06-12T11:09:23.589Z,8.67
2018-06-12T11:11:52.504Z,10.10
2018-06-12T11:14:21.296Z,8.77
2018-06-12T11:16:50.364Z,9.57
2018-06-12T11:19:19.303Z,9.70
2018-06-12T11:21:48.197Z,9.27
2018-06-12T11:24:17.077Z,8.93
2018-06-12T11:26:45.824Z,9.23
2018-06-12T11:29:14.821Z,9.67
2018-06-12T11:31:43.448Z,8.87
2018-06-12T11:34:12.256Z,9.00
2018-06-12T11:36:41.085Z,9.33
2018-06-12T11:39:09.785Z,9.10
2018-06-12T11:41:38.589Z,9.90
2018-06-12T11:44:07.413Z,8.57
2018-06-12T11:46:35.932Z,8.83
2018-06-12T11:49:04.826Z,8.10
2018-06-12T11:51:33.733Z,8.03
2018-06-12T11:54:02.761Z,8.70
2018-06-12T11:56:31.081Z,8.73
2018-06-12T11:59:00.088Z,8.57
2018-06-12T12:01:28.859Z,8.10
2018-06-12T12:03:57.819Z,8.90
2018-06-12T12:06:26.756Z,9.27
2018-06-12T12:08:55.379Z,9.53
2018-06-12T12:11:24.432Z,8.47
2018-06-12T12:13:53.503Z,8.60
2018-06-12T12:16:22.284Z,8.27
2018-06-12T12:18:51.217Z,8.80
2018-06-12T12:21:20.130Z,7.97
2018-06-12T12:23:48.914Z,8.00
2018-06-12T12:26:17.816Z,7.83
2018-06-12T12:28:46.691Z,7.67
2018-06-12T12:31:15.425Z,7.53
2018-06-12T12:33:44.191Z,7.07
2018-06-12T12:36:12.949Z,7.70
2018-06-12T12:38:41.851Z,7.40
2018-06-12T12:41:10.506Z,6.50
2018-06-12T12:43:39.342Z,7.00
2018-06-12T12:46:08.645Z,6.07
2018-06-12T12:48:37.423Z,7.37
2018-06-12T12:51:06.521Z,6.40
2018-06-12T12:53:35.458Z,6.07
2018-06-12T12:56:04.373Z,6.07
2018-06-12T12:58:33.335Z,6.00
2018-06-12T13:01:02.361Z,6.50
2018-06-12T13:03:31.156Z,5.40
2018-06-12T13:05:59.975Z,5.50
2018-06-12T13:08:28.765Z,5.50
2018-06-12T13:10:57.573Z,5.67
2018-06-12T13:13:26.257Z,4.67
2018-06-12T13:15:55.268Z,4.90
2018-06-12T13:18:24.022Z,3.87
2018-06-12T13:20:52.877Z,4.73
2018-06-12T13:23:21.768Z,5.30
2018-06-12T13:25:50.658Z,4.70
2018-06-12T13:28:19.365Z,4.73
2018-06-12T13:30:48.036Z,4.53
2018-06-12T13:33:16.933Z,4.20
2018-06-12T13:35:45.600Z,3.87
2018-06-12T13:38:14.421Z,4.53
2018-06-12T13:40:43.116Z,4.20
2018-06-12T13:43:12.079Z,4.03
2018-06-12T13:45:40.867Z,3.45
2018-06-12T13:48:09.684Z,3.40
2018-06-12T13:50:38.653Z,3.63
2018-06-12T13:53:07.523Z,3.60
2018-06-12T13:55:36.192Z,3.30
2018-06-12T13:58:05.120Z,3.50
2018-06-12T14:00:33.946Z,3.93
2018-06-12T14:03:03.004Z,3.50
2018-06-12T14:05:32.177Z,4.33
2018-06-12T14:08:01.108Z,3.80
2018-06-12T14:10:30.085Z,3.63
2018-06-12T14:12:59.082Z,3.80
2018-06-12T14:15:27.973Z,4.10
2018-06-12T14:17:56.636Z,3.87
2018-06-12T14:20:25.345Z,4.60
2018-06-12T14:22:54.032Z,4.90
2018-06-12T14:25:22.746Z,4.23
2018-06-12T14:27:51.796Z,4.17
2018-06-12T14:30:20.906Z,4.60
2018-06-12T14:32:49.665Z,4.97
2018-06-12T14:35:18.436Z,4.50
2018-06-12T14:37:47.309Z,4.00
2018-06-12T14:40:16.084Z,3.90
2018-06-12T14:42:45.061Z,3.33
2018-06-12T14:45:14.157Z,3.00
2018-06-12T14:47:43.151Z,2.90
2018-06-12T14:50:12.069Z,3.40
2018-06-12T14:52:40.697Z,3.37
2018-06-12T14:55:09.704Z,3.70
2018-06-12T14:57:38.489Z,3.60
2018-06-12T15:00:07.437Z,3.20
2018-06-12T15:02:36.241Z,3.60
2018-06-12T15:05:05.005Z,4.70
2018-06-12T15:07:33.899Z,4.13
2018-06-12T15:10:02.760Z,4.60
2018-06-12T15:12:31.549Z,4.83
2018-06-12T15:15:00.441Z,4.40
2018-06-12T15:17:29.167Z,4.60
2018-06-12T15:19:58.241Z,4.87
2018-06-12T15:22:26.928Z,5.07
2018-06-12T15:24:55.607Z,4.77
2018-06-12T15:27:24.448Z,4.60
2018-06-12T15:29:53.378Z,4.20
2018-06-12T15:32:22.476Z,4.97
2018-06-12T15:34:51.364Z,4.67
2018-06-12T15:37:20.257Z,4.53
2018-06-12T15:39:49.295Z,4.80
2018-06-12T15:42:18.385Z,4.23
2018-06-12T15:44:47.436Z,4.50
2018-06-12T15:47:16.542Z,5.00
2018-06-12T15:49:45.265Z,4.40
2018-06-12T15:52:13.794Z,4.73
2018-06-12T15:54:42.706Z,4.50
2018-06-12T15:57:11.976Z,4.67
2018-06-12T15:59:40.789Z,4.53
2018-06-12T16:02:09.782Z,3.60
2018-06-12T16:04:38.501Z,4.57
2018-06-12T16:07:07.462Z,4.83
2018-06-12T16:09:36.386Z,4.77
2018-06-12T16:12:05.428Z,4.77
2018-06-12T16:14:34.340Z,4.27
2018-06-12T16:17:03.133Z,4.20
2018-06-12T16:19:32.241Z,3.80
2018-06-12T16:22:01.262Z,4.10
2018-06-12T16:24:37.168Z,3.67
2018-06-12T16:27:06.376Z,3.50
2018-06-12T16:29:35.388Z,3.50
2018-06-12T16:32:04.225Z,3.40
2018-06-12T16:34:33.103Z,3.90
2018-06-12T16:37:02.719Z,3.27
2018-06-12T16:39:31.669Z,3.20
2018-06-12T16:42:03.244Z,3.50
2018-06-12T16:44:38.679Z,3.50
2018-06-12T16:47:07.947Z,3.53
2018-06-12T16:49:40.055Z,2.83
2018-06-12T16:52:08.790Z,2.83
2018-06-12T16:54:37.472Z,3.60
2018-06-12T16:57:06.420Z,3.00
2018-06-12T16:59:35.204Z,3.17
2018-06-12T17:02:03.940Z,2.90
2018-06-12T17:04:32.741Z,3.00
2018-06-12T17:07:01.833Z,3.07
2018-06-12T17:09:32.848Z,3.10
2018-06-12T17:12:01.987Z,2.90
2018-06-12T17:14:31.749Z,3.00
2018-06-12T17:17:01.690Z,3.23
2018-06-12T17:19:30.405Z,2.90
2018-06-12T17:22:02.244Z,3.00
2018-06-12T17:24:30.937Z,3.80
2018-06-12T17:26:59.777Z,3.20
2018-06-12T17:29:31.895Z,2.97
2018-06-12T17:32:00.795Z,3.50
2018-06-12T17:34:30.545Z,3.27
2018-06-12T17:37:02.679Z,3.00
2018-06-12T17:39:38.274Z,2.90
2018-06-12T17:42:10.559Z,3.10
2018-06-12T17:44:40.650Z,2.97
2018-06-12T17:47:11.146Z,3.00
2018-06-12T17:49:40.408Z,3.00
2018-06-12T17:52:12.485Z,2.70
2018-06-12T17:54:44.382Z,2.97
2018-06-12T17:57:14.075Z,3.17
2018-06-12T18:03:00.393Z,2.93
2018-06-12T18:05:30.287Z,3.30
2018-06-12T18:07:59.791Z,2.67
2018-06-12T18:10:29.281Z,2.90
2018-06-12T18:12:59.271Z,2.70
2018-06-12T18:15:29.417Z,3.00
2018-06-12T18:18:08.117Z,3.07
2018-06-12T18:20:38.606Z,2.83
2018-06-12T18:23:08.634Z,2.80
2018-06-12T18:25:38.274Z,3.10
2018-06-12T18:34:12.426Z,3.30
2018-06-12T18:36:41.868Z,3.40
2018-06-12T18:39:12.086Z,3.80
2018-06-12T18:41:42.158Z,3.50
2018-06-12T18:44:12.333Z,3.80
2018-06-12T18:46:42.280Z,3.90
2018-06-12T18:49:11.644Z,3.77
2018-06-12T18:51:42.214Z,3.57
2018-06-12T18:54:11.195Z,3.80
2018-06-12T18:56:40.193Z,3.57
2018-06-12T18:59:13.705Z,3.73
2018-06-12T19:01:42.541Z,4.03
2018-06-12T19:04:11.303Z,3.70
2018-06-12T19:06:40.341Z,4.00
2018-06-12T19:09:09.465Z,3.60
2018-06-12T19:11:38.575Z,3.50
2018-06-12T19:14:07.458Z,3.63
2018-06-12T19:16:36.443Z,3.80
2018-06-12T19:19:05.738Z,4.23
2018-06-12T19:21:34.942Z,4.00
2018-06-12T19:24:04.471Z,3.73
2018-06-12T19:26:33.251Z,3.87
2018-06-12T19:29:02.302Z,3.40
2018-06-12T19:31:31.255Z,3.70
2018-06-12T19:34:00.128Z,3.87
2018-06-12T19:36:29.163Z,3.57
2018-06-12T19:38:58.101Z,3.40
2018-06-12T19:41:26.890Z,3.60
2018-06-12T19:43:55.986Z,3.53
2018-06-12T19:46:28.244Z,3.50
2018-06-12T19:48:57.778Z,3.63
2018-06-12T19:51:26.635Z,3.37
2018-06-12T19:53:55.804Z,3.93
2018-06-12T19:56:24.951Z,3.77
2018-06-12T19:58:53.763Z,3.50
2018-06-12T20:01:22.740Z,3.40
2018-06-12T20:03:51.554Z,3.70
2018-06-12T20:06:20.423Z,3.50
2018-06-12T20:08:49.404Z,3.60
2018-06-12T20:11:18.333Z,3.90
2018-06-12T20:13:47.335Z,3.70
2018-06-12T20:16:16.074Z,3.17
2018-06-12T20:18:44.805Z,3.50
2018-06-12T20:21:13.785Z,3.20
2018-06-12T20:23:51.040Z,3.43
2018-06-12T20:26:20.538Z,3.57
2018-06-12T20:28:49.547Z,3.23
2018-06-12T20:31:18.617Z,3.30
2018-06-12T20:33:47.894Z,3.63
2018-06-12T20:36:17.146Z,3.70
2018-06-12T20:38:46.205Z,3.40
2018-06-12T20:41:15.837Z,3.60
2018-06-12T20:43:44.617Z,3.63
2018-06-12T20:46:13.538Z,3.53
2018-06-12T20:48:42.566Z,3.53
2018-06-12T20:51:11.855Z,3.67
2018-06-12T20:53:42.280Z,3.90
2018-06-12T20:56:11.317Z,3.40
2018-06-12T20:58:40.240Z,3.63
2018-06-12T21:01:08.976Z,3.77
2018-06-12T21:03:37.918Z,3.70
2018-06-12T21:06:06.910Z,3.33
2018-06-12T21:08:36.005Z,3.50
2018-06-12T21:11:04.822Z,3.70
2018-06-12T21:13:33.986Z,3.13
2018-06-12T21:16:04.257Z,3.50
2018-06-12T21:18:33.121Z,3.53
2018-06-12T21:21:02.089Z,4.17
2018-06-12T21:23:31.299Z,3.83
2018-06-12T21:26:00.085Z,3.57
2018-06-12T21:28:29.182Z,3.40
2018-06-12T21:30:58.500Z,3.30
2018-06-12T21:33:27.397Z,3.20
2018-06-12T21:35:56.489Z,3.67
2018-06-12T21:38:25.504Z,3.50
2018-06-12T21:40:54.346Z,3.67
2018-06-12T21:43:23.362Z,3.43
2018-06-12T21:45:52.446Z,3.63
2018-06-12T21:48:21.285Z,3.90
2018-06-12T21:50:49.957Z,3.40
2018-06-12T21:53:18.707Z,3.97
2018-06-12T21:55:47.741Z,3.50
2018-06-12T21:58:16.588Z,3.90
2018-06-12T22:00:45.520Z,3.60
2018-06-12T22:03:14.585Z,3.57
2018-06-12T22:05:43.655Z,3.50
2018-06-12T22:08:12.878Z,3.67
2018-06-12T22:10:42.078Z,3.30
2018-06-12T22:13:11.301Z,3.40
2018-06-12T22:15:40.071Z,3.30
2018-06-12T22:18:09.082Z,3.50
2018-06-12T22:20:38.029Z,3.33
2018-06-12T22:23:06.766Z,3.80
2018-06-12T22:25:35.625Z,3.67
2018-06-12T22:28:04.618Z,3.53
2018-06-12T22:30:33.334Z,3.40
2018-06-12T22:33:02.349Z,3.37
2018-06-12T22:35:31.067Z,3.10
2018-06-12T22:37:59.874Z,3.47
2018-06-12T22:40:29.181Z,3.70
2018-06-12T22:42:58.069Z,3.67
2018-06-12T22:45:26.989Z,3.70
2018-06-12T22:47:55.757Z,3.30
2018-06-12T22:50:24.640Z,3.27
2018-06-12T22:52:53.839Z,3.73
2018-06-12T22:55:22.555Z,3.33
2018-06-12T22:57:51.333Z,3.50
2018-06-12T23:00:21.272Z,3.57
2018-06-12T23:02:50.016Z,3.10
2018-06-12T23:05:19.141Z,3.60
2018-06-12T23:07:48.166Z,3.93
2018-06-12T23:10:17.453Z,3.97
2018-06-12T23:12:46.140Z,3.87
2018-06-12T23:15:14.914Z,3.87
2018-06-12T23:17:44.300Z,3.30
2018-06-12T23:20:24.238Z,3.73
2018-06-12T23:22:52.977Z,4.30
2018-06-12T23:25:21.678Z,4.43
2018-06-12T23:27:50.495Z,4.47
2018-06-12T23:30:19.426Z,4.27
2018-06-12T23:32:48.388Z,4.50
2018-06-12T23:35:17.266Z,4.80
2018-06-12T23:37:46.094Z,4.37
2018-06-12T23:40:14.979Z,5.00
2018-06-12T23:42:43.820Z,4.83
2018-06-12T23:45:12.741Z,5.07
2018-06-12T23:47:41.829Z,5.20
2018-06-12T23:50:10.546Z,5.07
2018-06-12T23:52:39.413Z,5.03
2018-06-12T23:55:08.234Z,4.53
2018-06-12T23:57:37.195Z,4.53
